Time;durP1;ratioP1;P1;durP2;ratioP2;P2;SDS_P1;SDS_P2;PMS_P1;PMS_P2;Temp;Humidity;BMP_temperature;BMP_pressure;BME280_temperature;BME280_humidity;BME280_pressure;Samples;Min_cycle;Max_cycle;Signal;HPM_P1;HPM_P2
2021/09/13 00:02:09;;;;;;;4.47;3.15;;;12.90;99.90;;;;;;5002285;28;20030;-80
2021/09/13 00:04:35;;;;;;;6.70;3.63;;;13.00;99.90;;;;;;5007082;28;20439;-80
2021/09/13 00:07:01;;;;;;;5.25;3.28;;;12.90;99.90;;;;;;4996889;28;20030;-79
2021/09/13 00:09:27;;;;;;;5.60;3.50;;;13.00;99.90;;;;;;4984645;28;20034;-78
2021/09/13 00:11:53;;;;;;;4.63;3.38;;;13.00;99.90;;;;;;4988219;28;20109;-78
2021/09/13 00:14:21;;;;;;;5.53;3.47;;;12.90;99.90;;;;;;4996032;28;20033;-79
2021/09/13 00:16:46;;;;;;;5.50;3.50;;;12.90;99.90;;;;;;5010567;28;20769;-78
2021/09/13 00:19:13;;;;;;;7.28;3.33;;;13.00;99.90;;;;;;5006525;28;20041;-79
2021/09/13 00:21:39;;;;;;;5.32;3.20;;;13.00;99.90;;;;;;4997818;28;20037;-79
2021/09/13 00:24:05;;;;;;;5.80;3.78;;;13.00;99.90;;;;;;4992801;28;20033;-79
2021/09/13 00:26:32;;;;;;;5.13;3.28;;;13.00;99.90;;;;;;5010757;28;20026;-80
2021/09/13 00:28:59;;;;;;;5.40;3.83;;;12.90;99.90;;;;;;4978866;28;20054;-80
2021/09/13 00:31:26;;;;;;;5.10;3.30;;;13.00;99.90;;;;;;5020705;28;20379;-79
2021/09/13 00:33:52;;;;;;;4.60;3.28;;;12.90;99.90;;;;;;5009682;28;20041;-79
2021/09/13 00:36:18;;;;;;;5.00;3.28;;;12.90;99.90;;;;;;4999028;28;20403;-80
2021/09/13 00:38:45;;;;;;;4.95;3.33;;;12.90;99.90;;;;;;4997913;28;20025;-79
2021/09/13 00:41:12;;;;;;;4.35;3.22;;;12.90;99.90;;;;;;5006597;28;20065;-79
2021/09/13 00:43:40;;;;;;;5.90;3.67;;;12.90;99.90;;;;;;5004585;28;20030;-80
2021/09/13 00:46:08;;;;;;;6.18;3.13;;;12.90;99.90;;;;;;5006067;28;20069;-78
2021/09/13 00:48:33;;;;;;;4.15;3.20;;;12.90;99.90;;;;;;4989324;28;20034;-80
2021/09/13 00:50:59;;;;;;;4.43;3.38;;;12.90;99.90;;;;;;4995857;28;20034;-80
2021/09/13 00:53:25;;;;;;;4.95;3.15;;;12.90;99.90;;;;;;4977964;28;20033;-80
2021/09/13 00:55:53;;;;;;;4.43;3.17;;;12.90;99.90;;;;;;4968643;28;20041;-78
2021/09/13 00:58:19;;;;;;;4.57;3.47;;;12.90;99.90;;;;;;5012801;28;20487;-80
2021/09/13 01:00:45;;;;;;;4.15;3.35;;;12.90;99.90;;;;;;4994733;28;20061;-78
2021/09/13 01:03:11;;;;;;;3.25;2.88;;;12.80;99.90;;;;;;4989077;28;20041;-80
2021/09/13 01:05:36;;;;;;;7.05;2.97;;;12.80;99.90;;;;;;4980975;28;20022;-79
2021/09/13 01:08:03;;;;;;;5.53;3.30;;;12.80;99.90;;;;;;4982306;28;20175;-78
2021/09/13 01:10:28;;;;;;;5.50;3.13;;;12.70;99.90;;;;;;5014429;28;20054;-80
2021/09/13 01:12:54;;;;;;;3.60;2.88;;;12.80;99.90;;;;;;5008795;28;20033;-79
2021/09/13 01:15:20;;;;;;;3.88;3.25;;;12.70;99.90;;;;;;4987942;28;20056;-79
2021/09/13 01:17:46;;;;;;;5.15;3.10;;;12.70;99.90;;;;;;4963907;28;20042;-77
2021/09/13 01:20:12;;;;;;;5.18;3.38;;;12.70;99.90;;;;;;4996896;28;20034;-80
2021/09/13 01:22:41;;;;;;;5.40;3.30;;;12.70;99.90;;;;;;4982397;28;20428;-79
2021/09/13 01:25:08;;;;;;;5.63;3.00;;;12.70;99.90;;;;;;4975263;28;20033;-79
2021/09/13 01:27:33;;;;;;;4.65;3.75;;;12.70;99.90;;;;;;4996322;28;20088;-80
2021/09/13 01:30:00;;;;;;;4.00;3.20;;;12.70;99.90;;;;;;4981475;28;20400;-78
2021/09/13 01:32:26;;;;;;;4.45;3.67;;;12.60;99.90;;;;;;4995417;28;20033;-80
2021/09/13 01:34:57;;;;;;;4.28;3.00;;;12.70;99.90;;;;;;4990908;28;20026;-80
2021/09/13 01:37:24;;;;;;;4.88;3.38;;;12.60;99.90;;;;;;4999193;28;20038;-80
2021/09/13 01:39:53;;;;;;;4.10;2.95;;;12.70;99.90;;;;;;4976177;28;20065;-78
2021/09/13 01:42:18;;;;;;;3.72;3.13;;;12.70;99.90;;;;;;5010807;28;20057;-79
2021/09/13 01:44:44;;;;;;;4.60;3.30;;;12.70;99.90;;;;;;4990242;28;20047;-80
2021/09/13 01:47:10;;;;;;;4.03;3.00;;;12.60;99.90;;;;;;4976359;28;20125;-78
2021/09/13 01:49:37;;;;;;;4.35;3.03;;;12.60;99.90;;;;;;4988878;28;20510;-79
2021/09/13 01:52:03;;;;;;;5.35;3.45;;;12.60;99.90;;;;;;5004583;28;20026;-79
2021/09/13 01:54:29;;;;;;;3.53;2.95;;;12.60;99.90;;;;;;4984922;28;20231;-79
2021/09/13 01:56:54;;;;;;;7.40;3.35;;;12.60;99.90;;;;;;4997415;28;20065;-80
2021/09/13 01:59:33;;;;;;;5.72;3.47;;;12.50;99.90;;;;;;4980239;28;20542;-80
2021/09/13 02:01:59;;;;;;;5.57;3.25;;;12.50;99.90;;;;;;5004203;28;20045;-79
2021/09/13 02:04:25;;;;;;;4.13;3.03;;;12.50;99.90;;;;;;5018898;28;20026;-78
2021/09/13 02:06:52;;;;;;;5.05;3.50;;;12.50;99.90;;;;;;4993358;28;20514;-80
2021/09/13 02:09:17;;;;;;;6.07;3.42;;;12.40;99.90;;;;;;4986747;28;20042;-77
2021/09/13 02:11:43;;;;;;;6.18;3.58;;;12.40;99.90;;;;;;5000855;28;20088;-80
2021/09/13 02:14:10;;;;;;;5.50;3.55;;;12.40;99.90;;;;;;4993244;28;20045;-78
2021/09/13 02:16:35;;;;;;;4.20;3.30;;;12.40;99.90;;;;;;4977462;28;20026;-80
2021/09/13 02:19:04;;;;;;;5.60;3.88;;;12.30;99.90;;;;;;4974558;28;20049;-79
2021/09/13 02:21:30;;;;;;;4.75;3.40;;;12.40;99.90;;;;;;5008671;28;20030;-80
2021/09/13 02:23:56;;;;;;;5.45;3.65;;;12.40;99.90;;;;;;4982050;28;20062;-79
2021/09/13 02:26:22;;;;;;;5.20;2.83;;;12.40;99.90;;;;;;4991461;28;20025;-78
2021/09/13 02:28:48;;;;;;;5.63;3.33;;;12.40;99.90;;;;;;5000421;28;20021;-79
2021/09/13 02:31:14;;;;;;;4.57;3.30;;;12.30;99.90;;;;;;4989514;28;20038;-79
2021/09/13 02:33:40;;;;;;;4.97;3.38;;;12.30;99.90;;;;;;5003439;28;20034;-79
2021/09/13 02:36:06;;;;;;;6.32;2.90;;;12.30;99.90;;;;;;4975405;28;20030;-78
2021/09/13 02:38:33;;;;;;;5.03;3.38;;;12.30;99.90;;;;;;4980337;28;20037;-79
2021/09/13 02:40:59;;;;;;;4.47;3.35;;;12.20;99.90;;;;;;4952717;28;20044;-79
2021/09/13 02:43:28;;;;;;;3.50;3.13;;;12.20;99.90;;;;;;4980709;28;20166;-79
2021/09/13 02:48:25;;;;;;;5.68;3.83;;;12.20;99.90;;;;;;4999627;28;20045;-78
2021/09/13 02:50:51;;;;;;;4.68;3.38;;;12.10;99.90;;;;;;4998745;28;20034;-78
2021/09/13 02:53:17;;;;;;;5.80;3.60;;;12.10;99.90;;;;;;5027370;28;20059;-78
2021/09/13 02:55:43;;;;;;;5.20;3.65;;;12.10;99.90;;;;;;4998891;28;20021;-79
2021/09/13 02:58:09;;;;;;;5.00;3.42;;;12.10;99.90;;;;;;5024751;28;20120;-78
2021/09/13 03:00:37;;;;;;;5.93;3.42;;;12.10;99.90;;;;;;5009673;28;20172;-78
2021/09/13 03:03:05;;;;;;;3.97;3.00;;;12.10;99.90;;;;;;5022864;28;20128;-78
2021/09/13 03:05:31;;;;;;;3.70;3.10;;;12.00;99.90;;;;;;5002464;28;20096;-78
2021/09/13 03:08:02;;;;;;;4.75;3.20;;;12.00;99.90;;;;;;5010808;28;20026;-79
2021/09/13 03:10:27;;;;;;;5.63;3.35;;;12.00;99.90;;;;;;5003234;28;20044;-78
2021/09/13 03:12:53;;;;;;;5.10;3.13;;;12.00;99.90;;;;;;5027721;28;20026;-78
2021/09/13 03:15:19;;;;;;;4.07;2.92;;;12.00;99.90;;;;;;5014576;28;20052;-78
2021/09/13 03:17:47;;;;;;;4.90;3.42;;;12.00;99.90;;;;;;5020343;28;20033;-78
2021/09/13 03:20:16;;;;;;;4.53;3.05;;;12.00;99.90;;;;;;4991030;28;20075;-78
2021/09/13 03:22:42;;;;;;;4.72;2.65;;;12.00;99.90;;;;;;5009819;28;20365;-78
2021/09/13 03:25:08;;;;;;;4.57;3.20;;;11.90;99.90;;;;;;5010276;28;20056;-78
2021/09/13 03:27:34;;;;;;;5.63;2.90;;;12.00;99.90;;;;;;4974227;28;20034;-76
2021/09/13 03:30:00;;;;;;;4.28;2.92;;;11.90;99.90;;;;;;5006329;28;20030;-78
2021/09/13 03:32:25;;;;;;;4.30;3.33;;;11.90;99.90;;;;;;5034580;28;20029;-79
2021/09/13 03:34:51;;;;;;;5.15;3.25;;;11.90;99.90;;;;;;5026673;28;20065;-76
2021/09/13 03:37:17;;;;;;;4.40;3.08;;;11.80;99.90;;;;;;5021483;28;20038;-78
2021/09/13 03:39:43;;;;;;;4.65;3.30;;;11.80;99.90;;;;;;5005280;28;20033;-78
2021/09/13 03:42:09;;;;;;;5.68;3.60;;;11.80;99.90;;;;;;5002974;28;20038;-76
2021/09/13 03:44:34;;;;;;;4.07;3.03;;;11.80;99.90;;;;;;5023296;28;20039;-76
2021/09/13 03:47:16;;;;;;;4.65;3.40;;;11.80;99.90;;;;;;5018818;28;20369;-79
2021/09/13 03:49:48;;;;;;;4.35;3.38;;;11.70;99.90;;;;;;5017677;28;20132;-79
2021/09/13 03:52:14;;;;;;;4.55;3.17;;;11.70;99.90;;;;;;5019893;28;20042;-79
2021/09/13 03:54:41;;;;;;;4.53;3.10;;;11.70;99.90;;;;;;5024930;28;20469;-79
2021/09/13 03:57:07;;;;;;;6.88;3.83;;;11.70;99.90;;;;;;5017606;28;20083;-79
2021/09/13 03:59:34;;;;;;;3.42;2.83;;;11.70;99.90;;;;;;5016528;28;20504;-79
2021/09/13 04:02:02;;;;;;;5.32;3.33;;;11.70;99.90;;;;;;5022905;28;20399;-79
2021/09/13 04:04:31;;;;;;;4.30;2.95;;;11.60;99.90;;;;;;4996917;28;20037;-77
2021/09/13 04:09:55;;;;;;;3.88;2.90;;;11.60;99.90;;;;;;5006336;28;20025;-79
2021/09/13 04:12:38;;;;;;;5.07;2.60;;;11.60;99.90;;;;;;5024589;28;20044;-78
2021/09/13 04:15:32;;;;;;;4.82;3.25;;;11.50;99.90;;;;;;5020437;28;20494;-79
2021/09/13 04:18:04;;;;;;;4.03;3.08;;;11.50;99.90;;;;;;5030299;28;20044;-78
2021/09/13 04:20:50;;;;;;;2.83;2.53;;;11.40;99.90;;;;;;5024195;28;20410;-79
2021/09/13 04:23:34;;;;;;;4.60;3.15;;;11.40;99.90;;;;;;5034175;28;20064;-79
2021/09/13 04:26:20;;;;;;;;;;;11.40;99.90;;;;;;5037290;28;20041;-79
2021/09/13 04:29:06;;;;;;;4.88;2.85;;;11.30;99.90;;;;;;5029521;28;19913;-79
2021/09/13 04:31:55;;;;;;;4.20;2.97;;;11.30;99.90;;;;;;5011582;28;20033;-79
2021/09/13 04:34:48;;;;;;;5.30;3.55;;;11.30;99.90;;;;;;5015719;28;20029;-79
2021/09/13 04:37:32;;;;;;;3.85;3.05;;;11.30;99.90;;;;;;5027167;28;20136;-79
2021/09/13 04:40:14;;;;;;;4.43;2.90;;;11.20;99.90;;;;;;4985948;28;20550;-79
2021/09/13 04:43:00;;;;;;;4.30;3.05;;;11.20;99.90;;;;;;5002449;28;20560;-79
2021/09/13 04:45:37;;;;;;;7.50;3.38;;;11.20;99.90;;;;;;5013939;28;20022;-79
2021/09/13 04:48:24;;;;;;;5.13;3.38;;;11.10;99.90;;;;;;5011428;28;20056;-79
2021/09/13 04:50:57;;;;;;;4.43;3.00;;;11.10;99.90;;;;;;5011836;28;20033;-79
2021/09/13 04:53:45;;;;;;;6.43;3.42;;;11.10;99.90;;;;;;5018559;28;20037;-79
2021/09/13 04:56:14;;;;;;;3.97;2.92;;;11.10;99.90;;;;;;5010721;28;20037;-78
2021/09/13 04:58:39;;;;;;;6.72;3.67;;;11.10;99.90;;;;;;5017187;28;20521;-78
2021/09/13 05:01:08;;;;;;;5.63;3.33;;;11.10;99.90;;;;;;5037567;28;20034;-78
2021/09/13 05:03:36;;;;;;;4.88;3.33;;;11.10;99.90;;;;;;5023316;28;20039;-78
2021/09/13 05:06:03;;;;;;;6.15;3.75;;;11.00;99.90;;;;;;5014993;28;20043;-78
2021/09/13 05:08:30;;;;;;;4.13;3.03;;;11.00;99.90;;;;;;5009323;28;20049;-78
2021/09/13 05:11:01;;;;;;;4.32;3.28;;;11.00;99.90;;;;;;5019031;28;20377;-78
2021/09/13 05:13:26;;;;;;;4.80;3.20;;;11.00;99.90;;;;;;5015020;28;20124;-78
2021/09/13 05:15:52;;;;;;;5.93;3.33;;;11.00;99.90;;;;;;4991499;28;20037;-78
2021/09/13 05:18:18;;;;;;;6.00;4.05;;;11.00;99.90;;;;;;5005924;28;20112;-78
2021/09/13 05:20:44;;;;;;;4.25;3.50;;;11.00;99.90;;;;;;5010564;28;20110;-78
2021/09/13 05:23:10;;;;;;;4.80;3.05;;;11.10;99.90;;;;;;5011899;28;20666;-79
2021/09/13 05:25:36;;;;;;;5.45;3.97;;;11.10;99.90;;;;;;5028586;28;20049;-79
2021/09/13 05:28:01;;;;;;;4.32;3.13;;;11.10;99.90;;;;;;5012720;28;20078;-79
2021/09/13 05:30:27;;;;;;;5.10;3.67;;;11.10;99.90;;;;;;4983444;28;20044;-78
2021/09/13 05:32:53;;;;;;;5.13;3.33;;;11.20;99.90;;;;;;5012329;28;20498;-78
2021/09/13 05:35:19;;;;;;;3.58;3.10;;;11.20;99.90;;;;;;5021411;28;20025;-81
2021/09/13 05:37:45;;;;;;;5.47;3.45;;;11.20;99.90;;;;;;5012807;28;20395;-80
2021/09/13 05:40:11;;;;;;;5.85;3.88;;;11.30;99.90;;;;;;5017225;28;20026;-80
2021/09/13 05:42:37;;;;;;;6.78;3.28;;;11.30;99.90;;;;;;4989430;28;20025;-80
2021/09/13 05:45:09;;;;;;;4.03;3.00;;;11.40;99.90;;;;;;5017510;28;20029;-79
2021/09/13 05:47:38;;;;;;;3.67;2.63;;;11.60;99.90;;;;;;5032194;28;20060;-79
2021/09/13 05:50:05;;;;;;;6.05;3.00;;;11.70;99.90;;;;;;5015850;28;20057;-79
2021/09/13 05:52:31;;;;;;;3.50;2.70;;;11.90;99.90;;;;;;5011708;28;20033;-79
2021/09/13 05:54:56;;;;;;;3.50;2.70;;;12.00;99.90;;;;;;5020542;28;20040;-79
2021/09/13 05:57:22;;;;;;;4.10;3.05;;;12.10;99.90;;;;;;5016030;28;20402;-80
2021/09/13 05:59:48;;;;;;;7.68;3.45;;;12.30;99.90;;;;;;5022427;28;20055;-77
2021/09/13 06:02:16;;;;;;;3.75;3.08;;;12.50;99.90;;;;;;5017481;28;20033;-79
2021/09/13 06:04:54;;;;;;;3.55;3.17;;;12.60;99.90;;;;;;5013127;28;20570;-80
2021/09/13 06:07:21;;;;;;;4.05;2.88;;;12.70;99.90;;;;;;5016012;28;20033;-77
2021/09/13 06:09:46;;;;;;;3.22;2.88;;;12.80;99.90;;;;;;5013783;28;20071;-77
2021/09/13 06:12:14;;;;;;;6.10;3.25;;;12.90;99.90;;;;;;5010002;28;20426;-77
2021/09/13 06:14:51;;;;;;;5.05;3.10;;;13.00;99.90;;;;;;5012560;28;20029;-77
2021/09/13 06:17:20;;;;;;;3.95;3.05;;;13.20;99.90;;;;;;4996503;28;20037;-77
2021/09/13 06:19:47;;;;;;;9.18;3.00;;;13.40;99.90;;;;;;5013467;28;20083;-77
2021/09/13 06:22:16;;;;;;;3.85;2.90;;;13.60;99.90;;;;;;5019657;28;20022;-79
2021/09/13 06:24:41;;;;;;;3.50;3.10;;;13.80;99.90;;;;;;4985942;28;20390;-79
2021/09/13 06:27:10;;;;;;;6.53;3.75;;;14.00;99.90;;;;;;5006647;28;20157;-79
2021/09/13 06:29:36;;;;;;;3.80;2.83;;;14.20;99.90;;;;;;5011141;28;20115;-79
2021/09/13 06:32:02;;;;;;;5.03;3.13;;;14.30;99.90;;;;;;5018283;28;20021;-78
2021/09/13 06:34:30;;;;;;;4.28;3.20;;;14.50;99.90;;;;;;5029724;28;20036;-78
2021/09/13 06:36:56;;;;;;;3.70;2.97;;;14.70;99.90;;;;;;5013919;28;20026;-79
2021/09/13 06:39:23;;;;;;;5.13;3.38;;;14.90;99.90;;;;;;5014779;28;20029;-79
2021/09/13 06:41:48;;;;;;;3.97;3.50;;;15.00;99.90;;;;;;4999468;28;20087;-79
2021/09/13 06:44:25;;;;;;;4.37;3.40;;;15.20;99.90;;;;;;5002484;28;20029;-79
2021/09/13 06:47:22;;;;;;;5.15;3.20;;;15.30;99.90;;;;;;5015802;28;20057;-79
2021/09/13 06:49:48;;;;;;;4.78;3.58;;;15.60;99.90;;;;;;5029159;28;20497;-78
2021/09/13 06:52:14;;;;;;;4.60;3.33;;;15.80;99.90;;;;;;5036529;28;20104;-77
2021/09/13 06:54:39;;;;;;;4.55;3.13;;;16.10;99.90;;;;;;5018510;28;20076;-77
2021/09/13 06:57:06;;;;;;;4.78;3.47;;;16.30;99.90;;;;;;5000167;28;20067;-77
2021/09/13 06:59:32;;;;;;;6.47;3.30;;;16.60;99.90;;;;;;5031919;28;20037;-77
2021/09/13 07:01:57;;;;;;;4.63;3.15;;;16.70;99.90;;;;;;5008679;28;20377;-77
2021/09/13 07:04:24;;;;;;;4.28;3.05;;;16.70;99.90;;;;;;5031267;28;20052;-77
2021/09/13 07:06:52;;;;;;;3.50;3.10;;;16.90;99.90;;;;;;5012072;28;20029;-79
2021/09/13 07:09:18;;;;;;;6.15;3.15;;;16.90;99.90;;;;;;5010919;28;20030;-77
2021/09/13 07:11:44;;;;;;;3.58;3.20;;;17.10;99.90;;;;;;5011764;28;20026;-78
2021/09/13 07:14:11;;;;;;;7.22;4.68;;;17.30;99.90;;;;;;5016073;28;20066;-79
2021/09/13 07:16:37;;;;;;;4.78;3.67;;;17.40;99.90;;;;;;5016705;28;20032;-80
2021/09/13 07:19:03;;;;;;;5.72;3.92;;;17.70;99.90;;;;;;4995627;28;20543;-82
2021/09/13 07:21:32;;;;;;;7.20;4.28;;;18.00;99.90;;;;;;4997326;28;20731;-80
2021/09/13 07:23:57;;;;;;;5.18;3.45;;;18.20;99.90;;;;;;5040240;28;20038;-79
2021/09/13 07:26:23;;;;;;;4.65;3.95;;;18.40;99.90;;;;;;5037539;28;20038;-79
2021/09/13 07:28:49;;;;;;;4.45;3.35;;;18.60;99.90;;;;;;5031245;28;20030;-78
2021/09/13 07:31:14;;;;;;;5.63;3.70;;;18.80;99.90;;;;;;5015178;28;20087;-79
2021/09/13 07:33:40;;;;;;;5.50;3.45;;;19.10;99.90;;;;;;5038041;28;20025;-79
2021/09/13 07:36:06;;;;;;;7.05;3.95;;;19.20;99.90;;;;;;5033415;28;20033;-79
2021/09/13 07:38:32;;;;;;;6.18;4.70;;;19.10;99.90;;;;;;5013923;28;20407;-80
2021/09/13 07:40:57;;;;;;;5.72;4.50;;;18.80;99.90;;;;;;5025907;28;20092;-79
2021/09/13 07:43:23;;;;;;;4.93;3.88;;;18.90;99.90;;;;;;5003444;28;20115;-80
2021/09/13 07:45:49;;;;;;;6.32;4.68;;;19.00;99.90;;;;;;4998193;28;20116;-80
2021/09/13 07:48:17;;;;;;;4.28;3.83;;;18.80;99.90;;;;;;5029750;28;20025;-83
2021/09/13 07:50:44;;;;;;;5.78;4.22;;;18.90;99.90;;;;;;5018982;28;20024;-81
2021/09/13 07:53:10;;;;;;;6.93;4.28;;;18.80;99.90;;;;;;5023809;28;20092;-80
2021/09/13 07:55:36;;;;;;;5.55;3.92;;;19.00;99.90;;;;;;5005277;28;20449;-80
2021/09/13 07:58:02;;;;;;;6.10;4.38;;;19.10;99.90;;;;;;5009619;28;20064;-80
2021/09/13 08:00:27;;;;;;;5.40;4.30;;;19.20;99.90;;;;;;5008557;28;20388;-78
2021/09/13 08:02:53;;;;;;;7.25;5.55;;;19.30;99.90;;;;;;5036207;28;20079;-79
2021/09/13 08:05:19;;;;;;;5.57;4.03;;;19.40;99.90;;;;;;5008353;28;20034;-78
2021/09/13 08:07:45;;;;;;;5.22;4.13;;;19.20;99.90;;;;;;5027106;28;20113;-78
2021/09/13 08:10:11;;;;;;;4.80;3.45;;;19.30;99.90;;;;;;4980674;28;20400;-78
2021/09/13 08:12:37;;;;;;;6.35;4.72;;;19.30;99.90;;;;;;5005554;28;20051;-77
2021/09/13 08:15:03;;;;;;;5.78;4.47;;;19.30;99.90;;;;;;5005428;28;20045;-77
2021/09/13 08:17:31;;;;;;;6.85;4.35;;;19.30;99.90;;;;;;5025187;28;20033;-78
2021/09/13 08:19:58;;;;;;;7.18;4.47;;;19.40;99.90;;;;;;4994428;28;20025;-78
2021/09/13 08:22:24;;;;;;;5.43;4.25;;;19.50;99.90;;;;;;5024001;28;20032;-77
2021/09/13 08:24:51;;;;;;;5.70;4.88;;;19.40;99.90;;;;;;5006687;28;20029;-78
2021/09/13 08:27:39;;;;;;;6.00;4.43;;;19.40;99.90;;;;;;5008770;28;20033;-78
2021/09/13 08:30:06;;;;;;;4.80;4.15;;;19.50;99.90;;;;;;4998598;28;20562;-77
2021/09/13 08:32:32;;;;;;;5.13;3.67;;;19.60;99.90;;;;;;5025462;28;20030;-78
2021/09/13 08:34:57;;;;;;;4.95;4.07;;;19.60;99.90;;;;;;5004088;28;20030;-77
2021/09/13 08:37:24;;;;;;;6.07;4.18;;;19.70;99.90;;;;;;5011681;28;20069;-78
2021/09/13 08:39:50;;;;;;;6.07;4.28;;;19.70;99.90;;;;;;4980555;28;20045;-77
2021/09/13 08:42:15;;;;;;;4.28;3.80;;;19.70;99.90;;;;;;5025008;28;20055;-78
2021/09/13 08:44:44;;;;;;;8.35;4.43;;;19.60;99.90;;;;;;5003815;28;20030;-78
2021/09/13 08:47:20;;;;;;;6.10;3.70;;;19.60;99.90;;;;;;4989095;28;20030;-79
2021/09/13 08:49:48;;;;;;;4.25;3.83;;;19.60;99.90;;;;;;5011896;28;20489;-78
2021/09/13 08:52:13;;;;;;;4.78;3.47;;;19.60;99.90;;;;;;4973596;28;20764;-78
2021/09/13 08:54:40;;;;;;;4.90;3.60;;;19.50;99.90;;;;;;5008281;28;20084;-77
2021/09/13 08:57:07;;;;;;;7.05;3.08;;;19.50;99.90;;;;;;4997506;28;20524;-77
2021/09/13 08:59:34;;;;;;;5.18;3.30;;;19.40;99.90;;;;;;4985456;28;20672;-77
2021/09/13 09:02:00;;;;;;;4.85;3.55;;;19.40;99.90;;;;;;5004064;28;20037;-77
2021/09/13 09:04:28;;;;;;;5.13;3.28;;;19.40;99.90;;;;;;5013099;28;20516;-77
2021/09/13 09:06:53;;;;;;;9.57;4.07;;;19.50;99.90;;;;;;5004862;28;20021;-77
2021/09/13 09:09:21;;;;;;;5.28;3.92;;;19.40;99.90;;;;;;4994400;28;20183;-77
2021/09/13 09:12:01;;;;;;;6.47;3.30;;;19.50;99.90;;;;;;5024000;28;20029;-77
2021/09/13 09:14:32;;;;;;;5.00;3.08;;;19.70;99.90;;;;;;5023297;28;20044;-77
2021/09/13 09:17:01;;;;;;;4.85;2.70;;;19.80;99.90;;;;;;5031297;28;20034;-77
2021/09/13 09:19:26;;;;;;;4.95;3.35;;;19.90;99.90;;;;;;5030273;28;20067;-77
2021/09/13 09:21:52;;;;;;;3.97;2.63;;;19.90;99.90;;;;;;5016860;28;20037;-77
2021/09/13 09:24:19;;;;;;;5.00;2.60;;;19.90;99.90;;;;;;5032232;28;20034;-77
2021/09/13 09:27:01;;;;;;;5.13;2.38;;;19.80;99.90;;;;;;5005897;28;20033;-77
2021/09/13 09:29:29;;;;;;;2.67;2.30;;;19.80;99.90;;;;;;5026185;28;20108;-77
2021/09/13 09:31:58;;;;;;;2.53;2.13;;;19.80;99.90;;;;;;5013444;28;20028;-77
2021/09/13 09:34:25;;;;;;;3.40;2.35;;;19.80;99.90;;;;;;5016293;28;20040;-77
2021/09/13 09:37:00;;;;;;;2.50;2.30;;;19.70;99.90;;;;;;5023157;28;20037;-77
2021/09/13 09:39:30;;;;;;;2.10;1.90;;;19.60;99.90;;;;;;5024203;28;20021;-77
2021/09/13 09:41:56;;;;;;;2.83;2.25;;;19.50;99.90;;;;;;5007103;28;20045;-77
2021/09/13 09:44:23;;;;;;;4.55;2.47;;;19.50;99.90;;;;;;5032445;28;20472;-77
2021/09/13 09:46:53;;;;;;;3.25;2.33;;;19.50;99.90;;;;;;5016604;28;20059;-77
2021/09/13 09:49:20;;;;;;;3.58;2.60;;;19.50;99.90;;;;;;5020838;28;20021;-77
2021/09/13 09:51:51;;;;;;;2.67;2.40;;;19.60;99.90;;;;;;5024558;28;20375;-77
2021/09/13 09:54:19;;;;;;;2.47;2.20;;;19.80;99.90;;;;;;5010102;28;20496;-77
2021/09/13 09:56:47;;;;;;;3.70;2.80;;;19.90;99.90;;;;;;5012684;28;20091;-77
2021/09/13 09:59:17;;;;;;;2.53;2.25;;;19.90;99.90;;;;;;5031882;28;20496;-77
2021/09/13 10:01:48;;;;;;;3.85;2.03;;;20.00;99.90;;;;;;5037564;28;20082;-78
2021/09/13 10:04:22;;;;;;;2.20;1.85;;;20.10;99.90;;;;;;5015207;28;20558;-78
2021/09/13 10:06:56;;;;;;;2.67;2.28;;;20.10;99.90;;;;;;5012869;28;20050;-78
2021/09/13 10:09:24;;;;;;;2.30;2.03;;;20.30;99.90;;;;;;5038438;28;20086;-78
2021/09/13 10:11:53;;;;;;;1.85;1.70;;;20.40;99.90;;;;;;5016787;28;20025;-77
2021/09/13 10:14:22;;;;;;;2.45;1.70;;;20.30;99.90;;;;;;5015801;28;20088;-78
2021/09/13 10:16:48;;;;;;;2.58;1.65;;;20.40;99.90;;;;;;5029890;28;20033;-77
2021/09/13 10:19:15;;;;;;;2.00;1.80;;;20.40;99.90;;;;;;5031291;28;20034;-77
2021/09/13 10:21:41;;;;;;;3.05;2.03;;;20.40;99.90;;;;;;5004485;28;20034;-77
2021/09/13 10:24:15;;;;;;;2.35;2.10;;;20.30;99.90;;;;;;5032700;28;20080;-77
2021/09/13 10:26:46;;;;;;;1.77;1.67;;;20.30;99.90;;;;;;4998858;28;20033;-77
2021/09/13 10:29:11;;;;;;;1.90;1.73;;;20.30;99.90;;;;;;5029844;28;20089;-78
2021/09/13 10:31:45;;;;;;;2.10;1.80;;;20.40;99.90;;;;;;5038494;28;20104;-77
2021/09/13 10:34:23;;;;;;;1.80;1.70;;;20.50;99.90;;;;;;5034343;28;20033;-77
2021/09/13 10:37:05;;;;;;;2.10;1.90;;;20.60;99.90;;;;;;5010835;28;20041;-77
2021/09/13 10:39:56;;;;;;;1.92;1.50;;;20.70;99.90;;;;;;5017589;28;20480;-77
2021/09/13 10:42:43;;;;;;;2.05;1.60;;;20.80;99.90;;;;;;5014472;28;20103;-77
2021/09/13 10:45:24;;;;;;;2.00;1.60;;;20.90;99.90;;;;;;5030811;28;20064;-77
2021/09/13 10:47:50;;;;;;;1.67;1.58;;;20.80;99.90;;;;;;5024520;28;20029;-77
2021/09/13 10:50:40;;;;;;;2.75;1.60;;;20.90;99.90;;;;;;5014411;28;20021;-77
2021/09/13 10:53:27;;;;;;;2.47;1.60;;;20.80;99.90;;;;;;5031512;28;20065;-77
2021/09/13 10:56:01;;;;;;;3.58;1.90;;;20.70;99.90;;;;;;5019741;28;20055;-77
2021/09/13 10:58:30;;;;;;;2.55;1.92;;;20.70;99.90;;;;;;5009649;28;20060;-78
2021/09/13 11:01:03;;;;;;;2.05;1.67;;;20.70;99.90;;;;;;5010673;28;20097;-78
2021/09/13 11:03:29;;;;;;;2.47;1.77;;;20.70;99.90;;;;;;5010763;28;20034;-78
2021/09/13 11:08:38;;;;;;;2.28;1.92;;;20.80;99.90;;;;;;5029210;28;20026;-77
2021/09/13 11:11:11;;;;;;;1.85;1.70;;;20.90;99.90;;;;;;5035507;28;20112;-77
2021/09/13 11:13:38;;;;;;;2.80;2.00;;;20.90;99.90;;;;;;5012637;28;20034;-78
2021/09/13 11:16:04;;;;;;;1.63;1.52;;;21.10;99.90;;;;;;5016756;28;20032;-77
2021/09/13 11:18:42;;;;;;;1.95;1.80;;;21.30;99.90;;;;;;5012117;28;20501;-78
2021/09/13 11:21:28;;;;;;;6.07;1.75;;;21.40;99.90;;;;;;5015292;28;20095;-77
2021/09/13 11:24:07;;;;;;;2.00;1.90;;;21.60;99.90;;;;;;5024979;28;20678;-78
2021/09/13 11:26:49;;;;;;;2.05;1.90;;;21.70;99.90;;;;;;5025945;28;20100;-78
2021/09/13 11:29:23;;;;;;;3.72;1.92;;;21.70;99.90;;;;;;5027599;28;20116;-78
2021/09/13 11:31:53;;;;;;;1.67;1.38;;;21.80;99.90;;;;;;5034314;28;20009;-77
2021/09/13 11:34:24;;;;;;;2.05;1.83;;;21.70;99.90;;;;;;5002258;28;20033;-77
2021/09/13 11:37:09;;;;;;;2.25;1.80;;;21.60;99.90;;;;;;5007860;28;20602;-77
2021/09/13 11:39:37;;;;;;;1.60;1.45;;;21.60;99.90;;;;;;5027299;28;20543;-78
2021/09/13 11:42:18;;;;;;;2.08;1.45;;;21.50;99.90;;;;;;5018418;28;20036;-77
2021/09/13 11:44:47;;;;;;;2.10;1.90;;;21.60;99.90;;;;;;5028934;28;20080;-77
2021/09/13 11:47:15;;;;;;;1.60;1.50;;;21.60;99.90;;;;;;5018613;28;20091;-77
2021/09/13 11:49:43;;;;;;;5.10;2.17;;;21.60;99.90;;;;;;5015612;28;20025;-77
2021/09/13 11:52:12;;;;;;;1.73;1.63;;;21.70;99.90;;;;;;5035245;28;20029;-77
2021/09/13 11:54:53;;;;;;;2.22;1.98;;;21.70;99.90;;;;;;5044757;28;20021;-77
2021/09/13 11:57:32;;;;;;;1.38;1.27;;;21.80;99.90;;;;;;5022706;28;20040;-77
2021/09/13 12:00:13;;;;;;;2.35;1.67;;;21.90;99.90;;;;;;5027021;28;20040;-77
2021/09/13 12:02:44;;;;;;;4.07;1.80;;;21.90;99.90;;;;;;5032132;28;20500;-77
2021/09/13 12:05:16;;;;;;;1.77;1.58;;;21.80;99.90;;;;;;5031298;28;20033;-78
2021/09/13 12:07:44;;;;;;;2.30;2.10;;;21.70;99.90;;;;;;5027398;28;20091;-77
2021/09/13 12:10:12;;;;;;;1.85;1.55;;;21.70;99.90;;;;;;5036473;28;20057;-77
2021/09/13 12:12:50;;;;;;;2.78;1.73;;;21.70;99.90;;;;;;5033883;28;20029;-77
2021/09/13 12:15:17;;;;;;;2.67;1.50;;;21.60;99.90;;;;;;5032101;28;20049;-76
2021/09/13 12:17:48;;;;;;;2.75;1.50;;;21.60;99.90;;;;;;5031267;28;20094;-77
2021/09/13 12:20:17;;;;;;;2.42;1.60;;;21.60;99.90;;;;;;5026834;28;20502;-76
2021/09/13 12:22:45;;;;;;;2.13;1.80;;;21.60;99.90;;;;;;5030450;28;20390;-77
2021/09/13 12:25:15;;;;;;;1.67;1.58;;;21.80;99.90;;;;;;5037816;28;20025;-77
2021/09/13 12:27:49;;;;;;;1.52;1.42;;;21.90;99.90;;;;;;5029959;28;20045;-77
2021/09/13 12:30:21;;;;;;;1.98;1.50;;;22.00;99.90;;;;;;5012397;28;20124;-77
2021/09/13 12:32:52;;;;;;;1.75;1.65;;;22.20;99.90;;;;;;5012910;28;20095;-77
2021/09/13 12:35:28;;;;;;;2.72;1.70;;;22.30;99.90;;;;;;5016571;28;20133;-77
2021/09/13 12:37:54;;;;;;;4.45;1.73;;;22.40;99.90;;;;;;5008879;28;20065;-77
2021/09/13 12:40:19;;;;;;;1.92;1.70;;;22.50;99.90;;;;;;5018154;28;20068;-77
2021/09/13 12:42:56;;;;;;;2.63;1.48;;;22.60;99.90;;;;;;5032039;28;20492;-77
2021/09/13 12:45:28;;;;;;;2.78;1.70;;;22.70;99.90;;;;;;5032018;28;20115;-77
2021/09/13 12:47:58;;;;;;;2.78;1.73;;;22.70;99.90;;;;;;5034108;28;20727;-77
2021/09/13 12:50:38;;;;;;;2.45;1.60;;;22.70;99.90;;;;;;5034729;28;20017;-77
2021/09/13 12:53:17;;;;;;;3.15;1.70;;;22.60;99.90;;;;;;5020419;28;20037;-77
2021/09/13 12:55:44;;;;;;;2.33;1.70;;;22.60;99.90;;;;;;5007549;28;20035;-76
2021/09/13 12:58:22;;;;;;;2.22;1.80;;;22.50;99.90;;;;;;5027866;28;20116;-77
2021/09/13 13:00:48;;;;;;;1.98;1.50;;;22.30;99.90;;;;;;5027600;28;20415;-77
2021/09/13 13:03:14;;;;;;;4.40;1.60;;;22.20;99.90;;;;;;5020946;28;20032;-77
2021/09/13 13:05:42;;;;;;;2.17;1.88;;;22.10;99.90;;;;;;5014830;28;20033;-77
2021/09/13 13:08:08;;;;;;;1.52;1.30;;;22.10;99.90;;;;;;5028937;28;20029;-77